Canadon Seco, Argentina
Current Conditions -  °F | °C
As of 6:00 PM on Thursday 27 Nov 2014 (Local Time) from SAVC Reporting Station
Clear Clear  
Wind Chill: 72°   Ceiling: Unl
Heat Index: 72°   Visibility: 6mi
Dew Point: 36°   Wind: 21mph
Humidity: 27%   Direction: 290°WNW
Pressure: 29.68"   Gusts: 29mph
Location:  46.55°S, 67.58°W
Report Text: SAVC 272100Z 29018G25KT CAVOK 22/02 Q1005
Loading
Personal Weather Stations






























Interactive Weather Map New forecast layout! Learn more

10-Day Weather Forecast

Advertisements
Track Severe Weather on mobile